Oak City, UT (84649)

2:37 AM MST on February 13, 2016 (GMT -0700)
Oak City | | Change Station
CLOSE
Current Station
Personal Weather Station
Location: Oak City, UT
Elevation: 5135 ft
Nearby Weather Stations

Elev 5135 ft 39.37 °N, 112.33 °W | Updated 1 minute ago

Overcast
Overcast
16.0 °F
Feels Like 16 °F
N
2.0
Wind Variable Wind from SE
Gusts 2.0 mph

Today
High -- | Low -- °F
--% Chance of Precip.
Yesterday
High -- | Low -- °F
Precip. -- in
Pressure 30.30 in
Visibility 0.2 miles
Clouds
Windchill 16 °F
Dew Point 14 °F
Humidity 91%
Rainfall 0.00 in
Snow Depth Not available.
7:24 AM 6:03 PM
Waxing Crescent, 29% visible
METAR KPVU 130935Z AUTO 00000KT M1/4SM VV000 M06/M08 A3030 RMK AO1
Pressure 30.30 in
Visibility 0.2 miles
Clouds
Windchill 16 °F
Dew Point 14 °F
Humidity 91%
Rainfall 0.00 in
Snow Depth Not available.
7:24 AM 6:03 PM
Waxing Crescent, 29% visible
METAR KPVU 130935Z AUTO 00000KT M1/4SM VV000 M06/M08 A3030 RMK AO1

10-Day Weather Forecast

Almanac

Astronomy

Feb. 13, 2016 Rise Set
Actual Time
Civil Twilight
Nautical Twilight
Astronomical Twilight
Moon
Length of Visible Light
Length of Day
Tomorrow will be .
, % of the Moon is Illuminated

Today's Extremes

State Highs State Lows

Community

WunderPhotos

Upload Photos

1,892,536 photos uploaded!

WunderBlog® & News

Nearby

Air Quality

  Air Quality AQ Index Pollutant
Not available.

Snow Depth

Station Depth Elevation

Earthquake Activity

City Distance Mag. Time & Date
Minimum magnitude displayed is 2.5.

Coastal Water Temperatures

Place Temperature

Stations

Nearby Weather Stations

Station Location Temp. Windchill Dew Point Humidity Wind Precip. Elev Updated Type
                   

Watches & Warnings

There are currently no watches in effect.